Alquina, Indiana
Current Conditions -  °F | °C
As of 7:55 PM on Saturday 25 Oct 2014 (Local Time) from KI67 Reporting Station
Clear Clear  
Wind Chill: 68°   Ceiling: Unl
Heat Index: 68°   Visibility: 10mi
Dew Point: 50°   Wind: 3mph
Humidity: 52%   Direction: 240°WSW
Pressure: 29.91"   Gusts: NA
Location:  39.645°N, 85.1744°W
Report Text: KI67 252355Z AUTO 24003KT 10SM CLR 20/10 A2991 RMK AO1
Loading
Personal Weather Stations






























Interactive Weather Map New forecast layout! Learn more

10-Day Weather Forecast

Advertisements
Track Severe Weather on mobile